»·PEaware :: N317CM KBFL-KMRY

N317CM :: KBFL-KMRY

FLIGHT INFORMATION

Flight Status: Arrived
Operator: Privately registered:
United States
More flights under this callsign
Pilot: Jude C. (28680)
Aircraft: PIPER PA-28 CHEROKEE ARCHER
(P28A)
More flights by this aircraft type
Origin: KBFL Meadows
United States
Destination: KMRY Monterey Peninsula
United States
More flights between these airports :: More routes between these airports
Route: EHF V248 AVE WIGGL
File this flight plan on PilotEdge
Remarks:
Altitude:
(Current/Filed)
10,000ft
Speed:
(Current/Filed)
110kts
Departed: 04-Apr-20 02:21 PM
Arrived: 04-Apr-20 03:52 PM
Distance/Time
Traveled:
152nm/1:31
Distance/Time
To Go:
Arrived

Flight Plot

Page will automatically refresh every two minutes.

Flight plan parsing failed; only flown route is shown


Map Options




Map Legend


Flown Route
Filed Route
Departure Airport
Arrival Airport
Navaid (VOR, NDB)
Fix

Horizontal Profiles

Position Reports

Time Latitude Longitude Heading Altitude Ground
Speed
04-Apr-20 14:04 35.426193 -119.042681 179 484ft 0kts
04-Apr-20 14:05 35.426192 -119.042681 179 484ft 0kts
04-Apr-20 14:06 35.426192 -119.042681 179 484ft 0kts
04-Apr-20 14:07 35.426192 -119.042681 179 484ft 0kts
04-Apr-20 14:09 35.426192 -119.042681 179 484ft 0kts
04-Apr-20 14:10 35.426192 -119.042681 179 484ft 0kts
04-Apr-20 14:11 35.426192 -119.042681 179 484ft 0kts
04-Apr-20 14:12 35.426192 -119.042681 179 484ft 0kts
04-Apr-20 14:13 35.426192 -119.042681 179 484ft 0kts
04-Apr-20 14:14 35.426186 -119.042681 179 484ft 0kts
04-Apr-20 14:15 35.426186 -119.042681 179 484ft 0kts
04-Apr-20 14:16 35.425634 -119.043619 261 481ft 12kts
04-Apr-20 14:17 35.425377 -119.044111 311 479ft 0kts
04-Apr-20 14:18 35.425376 -119.044110 311 479ft 0kts
04-Apr-20 14:19 35.425376 -119.044110 310 479ft 0kts
04-Apr-20 14:20 35.425560 -119.044688 268 478ft 0kts
04-Apr-20 14:21 35.429028 -119.050343 317 511ft 73kts
04-Apr-20 14:22 35.444688 -119.068213 315 1449ft 75kts
04-Apr-20 14:23 35.460558 -119.088308 310 2226ft 87kts
04-Apr-20 14:23 35.474411 -119.106914 312 2843ft 90kts
04-Apr-20 14:25 35.496408 -119.135678 313 3018ft 105kts
04-Apr-20 14:26 35.516182 -119.163181 311 3004ft 109kts
04-Apr-20 14:27 35.536852 -119.190968 314 2986ft 108kts
04-Apr-20 14:27 35.553331 -119.213496 299 3349ft 102kts
04-Apr-20 14:29 35.558218 -119.251460 279 4262ft 95kts
04-Apr-20 14:30 35.561892 -119.284325 280 4967ft 94kts
04-Apr-20 14:30 35.564851 -119.310695 279 5567ft 93kts
04-Apr-20 14:31 35.569010 -119.343208 280 6151ft 96kts
04-Apr-20 14:33 35.574063 -119.380675 283 6835ft 95kts
04-Apr-20 14:33 35.577624 -119.407649 279 7278ft 96kts
04-Apr-20 14:34 35.581455 -119.441203 279 7786ft 95kts
04-Apr-20 14:35 35.586001 -119.474537 281 8259ft 96kts
04-Apr-20 14:36 35.589971 -119.506985 278 8803ft 93kts
04-Apr-20 14:37 35.593559 -119.539757 278 9264ft 93kts
04-Apr-20 14:38 35.597827 -119.571718 279 9707ft 93kts
04-Apr-20 14:39 35.602562 -119.605050 278 9984ft 103kts
04-Apr-20 14:40 35.606867 -119.641298 279 9994ft 108kts
04-Apr-20 14:41 35.611038 -119.678475 277 10002ft 108kts
04-Apr-20 14:42 35.615447 -119.715125 277 10014ft 108kts
04-Apr-20 14:43 35.619708 -119.751720 276 10015ft 108kts
04-Apr-20 14:44 35.624316 -119.788509 275 10017ft 108kts
04-Apr-20 14:45 35.628464 -119.825667 275 10013ft 108kts
04-Apr-20 14:46 35.633214 -119.862814 276 10014ft 108kts
04-Apr-20 14:47 35.637734 -119.899703 274 10027ft 107kts
04-Apr-20 14:48 35.642415 -119.936519 274 10019ft 108kts
04-Apr-20 14:49 35.646420 -119.974118 277 10024ft 108kts
04-Apr-20 14:50 35.663148 -120.006136 298 10076ft 111kts
04-Apr-20 14:51 35.681151 -120.038279 298 10055ft 114kts
04-Apr-20 14:52 35.699190 -120.070475 299 10025ft 113kts
04-Apr-20 14:53 35.717421 -120.102212 299 10025ft 112kts
04-Apr-20 14:54 35.735392 -120.133724 299 10025ft 112kts
04-Apr-20 14:55 35.753330 -120.165254 299 10025ft 112kts
04-Apr-20 14:56 35.771194 -120.196698 299 10025ft 112kts
04-Apr-20 14:57 35.789121 -120.228290 299 10025ft 112kts
04-Apr-20 14:58 35.807087 -120.259977 299 10026ft 112kts
04-Apr-20 14:59 35.825013 -120.291625 299 10026ft 112kts
04-Apr-20 15:00 35.842941 -120.323306 299 10026ft 112kts
04-Apr-20 15:01 35.860914 -120.355098 299 10025ft 112kts
04-Apr-20 15:02 35.878731 -120.386630 298 10015ft 113kts
04-Apr-20 15:03 35.896710 -120.418490 298 10015ft 113kts
04-Apr-20 15:04 35.914683 -120.450369 298 10015ft 113kts
04-Apr-20 15:05 35.932768 -120.482473 298 10016ft 113kts
04-Apr-20 15:06 35.950679 -120.514301 298 10016ft 113kts
04-Apr-20 15:07 35.968634 -120.546235 298 10016ft 113kts
04-Apr-20 15:08 35.986627 -120.578266 298 10016ft 113kts
04-Apr-20 15:09 36.004603 -120.610295 298 10016ft 113kts
04-Apr-20 15:10 36.022720 -120.642608 298 10016ft 113kts
04-Apr-20 15:11 36.041183 -120.675565 298 10019ft 113kts
04-Apr-20 15:12 36.059831 -120.708879 298 10019ft 114kts
04-Apr-20 15:13 36.078214 -120.741756 298 10019ft 114kts
04-Apr-20 15:14 36.096384 -120.774287 298 10019ft 114kts
04-Apr-20 15:15 36.114748 -120.807196 298 10017ft 113kts
04-Apr-20 15:16 36.133259 -120.840402 298 10017ft 113kts
04-Apr-20 15:17 36.151689 -120.873497 298 10016ft 113kts
04-Apr-20 15:18 36.169545 -120.905583 298 10016ft 113kts
04-Apr-20 15:19 36.187354 -120.937619 298 10016ft 113kts
04-Apr-20 15:20 36.205229 -120.969793 298 10016ft 113kts
04-Apr-20 15:21 36.222734 -121.001338 298 10017ft 112kts
04-Apr-20 15:22 36.240512 -121.033400 297 10018ft 111kts
04-Apr-20 15:23 36.257902 -121.064788 297 10018ft 110kts
04-Apr-20 15:24 36.275034 -121.095749 297 10020ft 109kts
04-Apr-20 15:25 36.291961 -121.126369 297 10021ft 108kts
04-Apr-20 15:26 36.308825 -121.156905 297 10023ft 106kts
04-Apr-20 15:27 36.325251 -121.186677 297 10024ft 105kts
04-Apr-20 15:28 36.341049 -121.215900 297 9832ft 100kts
04-Apr-20 15:29 36.356568 -121.243585 301 9355ft 102kts
04-Apr-20 15:30 36.373742 -121.270886 301 8714ft 96kts
04-Apr-20 15:31 36.388328 -121.298445 296 8162ft 92kts
04-Apr-20 15:32 36.402655 -121.325640 293 7667ft 93kts
04-Apr-20 15:33 36.417424 -121.353675 296 7122ft 96kts
04-Apr-20 15:34 36.428564 -121.383434 287 6641ft 93kts
04-Apr-20 15:35 36.438361 -121.413120 285 6194ft 91kts
04-Apr-20 15:36 36.447899 -121.441161 285 6098ft 91kts
04-Apr-20 15:37 36.459498 -121.469382 290 6163ft 95kts
04-Apr-20 15:38 36.469986 -121.499078 288 6104ft 94kts
04-Apr-20 15:39 36.481095 -121.528626 288 5501ft 92kts
04-Apr-20 15:40 36.490809 -121.557850 287 5232ft 91kts
04-Apr-20 15:41 36.501089 -121.586913 287 4681ft 94kts
04-Apr-20 15:42 36.510972 -121.616685 285 4372ft 91kts
04-Apr-20 15:43 36.519418 -121.642567 287 3776ft 80kts
04-Apr-20 15:44 36.528036 -121.669259 282 3333ft 83kts
04-Apr-20 15:45 36.537060 -121.697022 286 2916ft 80kts
04-Apr-20 15:46 36.547342 -121.723066 284 2576ft 83kts
04-Apr-20 15:47 36.555900 -121.750972 295 2079ft 83kts
04-Apr-20 15:48 36.565084 -121.778726 288 1610ft 85kts
04-Apr-20 15:49 36.574426 -121.805485 281 1048ft 76kts
04-Apr-20 15:50 36.582082 -121.829900 290 375ft 72kts
04-Apr-20 15:51 36.585119 -121.841366 223 230ft 0kts
04-Apr-20 15:52 36.586497 -121.845850 280 197ft 11kts
04-Apr-20 15:53 36.586450 -121.847073 8 194ft 0kts

Navigation Log

Ident Type
Flight plan parsing failed, navigation log unavailable